Mitchell, IN (47446)

2:15 PM EDT on September 16, 2014 (GMT -0400)
yockey | Change Station
CLOSE
Current Station
Personal Weather Station
Location: Mitchell, IN
Elevation: 610 ft
Nearby Weather Stations

Elev 610 ft 38.79 °N, 86.50 °W | Updated 1 minute ago

Overcast
Overcast
60.9 °F
Feels Like 60.9 °F
N
0.0
Wind Variable Wind from NNW
Gusts 0.0 mph

Today
High -- | Low -- °F
--% Chance of Precip.
Yesterday
High -- | Low -- °F
Precip. -- in
7:28 AM 7:52 PM
Last Quarter, 43% visible
Pressure 30.17 in
Visibility 10.0 miles
Clouds Overcast 2200 ft
Dew Point 55 °F
Humidity 80%
Rainfall 0.04 in
Snow Depth Not available.
UV 3 out of 12
Pollen 5.90 out of 12
Air Quality Not available.
Flu Activity Not available.
METAR KBMG 161753Z VRB05KT 10SM OVC022 16/09 A3018 RMK AO2 SLP217 T01560094 10156 20128 56006

More Conditions Fewer Conditions

Pressure 30.17 in
Visibility 10.0 miles
Clouds Overcast 2200 ft
Dew Point 55 °F
Humidity 80%
Rainfall 0.04 in
Snow Depth Not available.
UV 3 out of 12
Pollen 5.90 out of 12
Air Quality Not available.
Flu Activity Not available.
METAR KBMG 161753Z VRB05KT 10SM OVC022 16/09 A3018 RMK AO2 SLP217 T01560094 10156 20128 56006

More Conditions Fewer Conditions

10-Day Weather Forecast

Almanac

Astronomy

Sep. 16, 2014 Rise Set
Actual Time 7:28 AM EDT 7:52 PM EDT
Civil Twilight 7:01 AM EDT 8:19 PM EDT
Nautical Twilight 6:30 AM EDT 8:50 PM EDT
Astronomical Twilight 5:58 AM EDT 9:22 PM EDT
Moon 12:40 AM EDT 3:13 PM EDT
Length of Visible Light 13h 17m
Length of Day
12h 24m
Tomorrow will be 2m 29s shorter.
Last Quarter, 43% of the Moon is Illuminated
Today
Last Quarter
Sep 24
New
Oct 1
First Quarter
Oct 8
Full
Oct 15
Last Quarter

Today's Extremes

State Highs State Lows

Community

WunderPhotos

Upload Photos

1,753,850 photos uploaded!

WunderBlogs® & News

Nearby

Snow Depth

Station Depth Elevation
No new snow has been reported.

Earthquake Activity

City Distance Mag. Time & Date
No recent earthquake activity has been reported nearby.
Minimum magnitude displayed is 2.5.

Coastal Water Temperatures

Place Temperature
No Stations Reporting

Nearby Weather Stations